sensor_id;sensor_type;location;lat;lon;timestamp;P1;durP1;ratioP1;P2;durP2;ratioP2
13406;SDS011;6774;48.208;10.766;2022-10-19T00:00:09;1.20;;;1.20;;
13406;SDS011;6774;48.208;10.766;2022-10-19T00:02:37;2.77;;;2.57;;
13406;SDS011;6774;48.208;10.766;2022-10-19T00:05:05;2.00;;;1.90;;
13406;SDS011;6774;48.208;10.766;2022-10-19T00:07:34;1.63;;;1.53;;
13406;SDS011;6774;48.208;10.766;2022-10-19T00:10:02;1.00;;;1.00;;
13406;SDS011;6774;48.208;10.766;2022-10-19T00:12:30;1.30;;;1.30;;
13406;SDS011;6774;48.208;10.766;2022-10-19T00:15:00;1.70;;;1.60;;
13406;SDS011;6774;48.208;10.766;2022-10-19T00:17:28;0.70;;;0.70;;
13406;SDS011;6774;48.208;10.766;2022-10-19T00:19:57;0.70;;;0.70;;
13406;SDS011;6774;48.208;10.766;2022-10-19T00:22:24;0.30;;;0.30;;
13406;SDS011;6774;48.208;10.766;2022-10-19T00:24:52;0.60;;;0.60;;
13406;SDS011;6774;48.208;10.766;2022-10-19T00:27:23;1.23;;;0.80;;
13406;SDS011;6774;48.208;10.766;2022-10-19T00:29:51;0.57;;;0.57;;
13406;SDS011;6774;48.208;10.766;2022-10-19T00:32:20;0.80;;;0.80;;
13406;SDS011;6774;48.208;10.766;2022-10-19T00:34:49;0.50;;;0.50;;
13406;SDS011;6774;48.208;10.766;2022-10-19T00:37:17;0.43;;;0.43;;
13406;SDS011;6774;48.208;10.766;2022-10-19T00:39:44;0.53;;;0.53;;
13406;SDS011;6774;48.208;10.766;2022-10-19T00:42:13;0.80;;;0.80;;
13406;SDS011;6774;48.208;10.766;2022-10-19T00:44:55;0.73;;;0.73;;
13406;SDS011;6774;48.208;10.766;2022-10-19T00:47:31;0.60;;;0.43;;
13406;SDS011;6774;48.208;10.766;2022-10-19T00:50:00;0.63;;;0.63;;
13406;SDS011;6774;48.208;10.766;2022-10-19T00:52:28;1.13;;;0.70;;
13406;SDS011;6774;48.208;10.766;2022-10-19T00:54:57;0.70;;;0.60;;
13406;SDS011;6774;48.208;10.766;2022-10-19T00:57:26;1.90;;;1.07;;
13406;SDS011;6774;48.208;10.766;2022-10-19T00:59:56;1.27;;;1.27;;
13406;SDS011;6774;48.208;10.766;2022-10-19T01:02:26;0.90;;;0.90;;
13406;SDS011;6774;48.208;10.766;2022-10-19T01:04:55;1.13;;;1.13;;
13406;SDS011;6774;48.208;10.766;2022-10-19T01:07:23;8.47;;;2.07;;
13406;SDS011;6774;48.208;10.766;2022-10-19T01:09:53;2.67;;;2.23;;
13406;SDS011;6774;48.208;10.766;2022-10-19T01:12:27;1.40;;;1.30;;
13406;SDS011;6774;48.208;10.766;2022-10-19T01:15:11;5.10;;;1.60;;
13406;SDS011;6774;48.208;10.766;2022-10-19T01:17:49;1.90;;;1.80;;
13406;SDS011;6774;48.208;10.766;2022-10-19T01:20:37;2.20;;;2.10;;
13406;SDS011;6774;48.208;10.766;2022-10-19T01:23:25;3.67;;;3.37;;
13406;SDS011;6774;48.208;10.766;2022-10-19T01:26:07;2.50;;;2.40;;
13406;SDS011;6774;48.208;10.766;2022-10-19T01:28:53;1.73;;;1.63;;
13406;SDS011;6774;48.208;10.766;2022-10-19T01:31:37;1.20;;;1.20;;
13406;SDS011;6774;48.208;10.766;2022-10-19T01:34:12;1.47;;;1.37;;
13406;SDS011;6774;48.208;10.766;2022-10-19T01:36:46;1.80;;;1.70;;
13406;SDS011;6774;48.208;10.766;2022-10-19T01:39:22;1.50;;;1.40;;
13406;SDS011;6774;48.208;10.766;2022-10-19T01:41:56;1.67;;;1.57;;
13406;SDS011;6774;48.208;10.766;2022-10-19T01:44:34;2.17;;;2.07;;
13406;SDS011;6774;48.208;10.766;2022-10-19T01:47:08;1.63;;;1.53;;
13406;SDS011;6774;48.208;10.766;2022-10-19T01:49:43;2.00;;;1.90;;
13406;SDS011;6774;48.208;10.766;2022-10-19T01:52:17;1.67;;;1.57;;
13406;SDS011;6774;48.208;10.766;2022-10-19T01:54:48;1.77;;;1.67;;
13406;SDS011;6774;48.208;10.766;2022-10-19T01:57:19;1.40;;;1.30;;
13406;SDS011;6774;48.208;10.766;2022-10-19T01:59:50;1.70;;;1.60;;
13406;SDS011;6774;48.208;10.766;2022-10-19T02:02:22;1.70;;;1.60;;
13406;SDS011;6774;48.208;10.766;2022-10-19T02:04:51;1.47;;;1.43;;
13406;SDS011;6774;48.208;10.766;2022-10-19T02:07:23;1.97;;;1.87;;
13406;SDS011;6774;48.208;10.766;2022-10-19T02:09:51;1.73;;;1.63;;
13406;SDS011;6774;48.208;10.766;2022-10-19T02:12:19;1.50;;;1.40;;
13406;SDS011;6774;48.208;10.766;2022-10-19T02:14:49;1.80;;;1.70;;
13406;SDS011;6774;48.208;10.766;2022-10-19T02:17:22;1.40;;;1.30;;
13406;SDS011;6774;48.208;10.766;2022-10-19T02:19:54;1.43;;;1.33;;
13406;SDS011;6774;48.208;10.766;2022-10-19T02:22:23;1.73;;;1.63;;
13406;SDS011;6774;48.208;10.766;2022-10-19T02:24:51;2.07;;;1.97;;
13406;SDS011;6774;48.208;10.766;2022-10-19T02:27:20;2.53;;;1.33;;
13406;SDS011;6774;48.208;10.766;2022-10-19T02:29:48;2.07;;;1.97;;
13406;SDS011;6774;48.208;10.766;2022-10-19T02:32:16;1.77;;;1.67;;
13406;SDS011;6774;48.208;10.766;2022-10-19T02:34:45;1.60;;;1.50;;
13406;SDS011;6774;48.208;10.766;2022-10-19T02:37:14;2.23;;;2.00;;
13406;SDS011;6774;48.208;10.766;2022-10-19T02:39:47;2.20;;;2.10;;
13406;SDS011;6774;48.208;10.766;2022-10-19T02:42:16;2.20;;;2.10;;
13406;SDS011;6774;48.208;10.766;2022-10-19T02:44:47;2.50;;;2.30;;
13406;SDS011;6774;48.208;10.766;2022-10-19T02:47:20;3.70;;;3.50;;
13406;SDS011;6774;48.208;10.766;2022-10-19T02:49:53;3.30;;;3.10;;
13406;SDS011;6774;48.208;10.766;2022-10-19T02:52:21;3.33;;;3.13;;
13406;SDS011;6774;48.208;10.766;2022-10-19T02:54:50;3.30;;;3.00;;
13406;SDS011;6774;48.208;10.766;2022-10-19T02:57:19;3.47;;;3.27;;
13406;SDS011;6774;48.208;10.766;2022-10-19T02:59:49;3.57;;;3.27;;
13406;SDS011;6774;48.208;10.766;2022-10-19T03:02:17;2.00;;;1.90;;
13406;SDS011;6774;48.208;10.766;2022-10-19T03:04:45;3.43;;;3.23;;
13406;SDS011;6774;48.208;10.766;2022-10-19T03:07:16;4.20;;;3.87;;
13406;SDS011;6774;48.208;10.766;2022-10-19T03:09:46;2.70;;;2.60;;
13406;SDS011;6774;48.208;10.766;2022-10-19T03:12:13;2.93;;;2.73;;
13406;SDS011;6774;48.208;10.766;2022-10-19T03:14:42;2.77;;;2.60;;
13406;SDS011;6774;48.208;10.766;2022-10-19T03:17:09;4.63;;;2.87;;
13406;SDS011;6774;48.208;10.766;2022-10-19T03:19:38;3.13;;;2.90;;
13406;SDS011;6774;48.208;10.766;2022-10-19T03:22:06;3.50;;;3.30;;
13406;SDS011;6774;48.208;10.766;2022-10-19T03:24:35;3.43;;;3.23;;
13406;SDS011;6774;48.208;10.766;2022-10-19T03:27:03;2.97;;;2.80;;
13406;SDS011;6774;48.208;10.766;2022-10-19T03:29:31;2.20;;;2.10;;
13406;SDS011;6774;48.208;10.766;2022-10-19T03:31:59;2.30;;;2.20;;
13406;SDS011;6774;48.208;10.766;2022-10-19T03:34:27;1.97;;;1.87;;
13406;SDS011;6774;48.208;10.766;2022-10-19T03:36:55;1.97;;;1.87;;
13406;SDS011;6774;48.208;10.766;2022-10-19T03:39:24;2.43;;;2.33;;
13406;SDS011;6774;48.208;10.766;2022-10-19T03:41:53;1.97;;;1.87;;
13406;SDS011;6774;48.208;10.766;2022-10-19T03:44:21;1.97;;;1.87;;
13406;SDS011;6774;48.208;10.766;2022-10-19T03:46:49;2.23;;;2.13;;
13406;SDS011;6774;48.208;10.766;2022-10-19T03:49:17;3.30;;;3.10;;
13406;SDS011;6774;48.208;10.766;2022-10-19T03:51:46;2.57;;;2.43;;
13406;SDS011;6774;48.208;10.766;2022-10-19T03:54:14;1.97;;;1.87;;
13406;SDS011;6774;48.208;10.766;2022-10-19T03:56:43;3.50;;;3.30;;
13406;SDS011;6774;48.208;10.766;2022-10-19T03:59:13;3.23;;;3.07;;
13406;SDS011;6774;48.208;10.766;2022-10-19T04:01:42;2.27;;;2.17;;
13406;SDS011;6774;48.208;10.766;2022-10-19T04:04:13;1.60;;;1.50;;
13406;SDS011;6774;48.208;10.766;2022-10-19T04:06:43;1.93;;;1.83;;
13406;SDS011;6774;48.208;10.766;2022-10-19T04:09:13;2.10;;;1.77;;
13406;SDS011;6774;48.208;10.766;2022-10-19T04:11:42;2.40;;;2.20;;
13406;SDS011;6774;48.208;10.766;2022-10-19T04:14:12;3.50;;;3.20;;
13406;SDS011;6774;48.208;10.766;2022-10-19T04:16:57;3.10;;;2.90;;
13406;SDS011;6774;48.208;10.766;2022-10-19T04:19:25;3.00;;;2.80;;
13406;SDS011;6774;48.208;10.766;2022-10-19T04:21:53;2.07;;;1.97;;
13406;SDS011;6774;48.208;10.766;2022-10-19T04:24:22;3.33;;;3.17;;
13406;SDS011;6774;48.208;10.766;2022-10-19T04:26:50;3.30;;;3.10;;
13406;SDS011;6774;48.208;10.766;2022-10-19T04:29:22;3.97;;;2.83;;
13406;SDS011;6774;48.208;10.766;2022-10-19T04:31:56;2.80;;;2.60;;
13406;SDS011;6774;48.208;10.766;2022-10-19T04:34:24;1.77;;;1.67;;
13406;SDS011;6774;48.208;10.766;2022-10-19T04:36:52;2.57;;;2.37;;
13406;SDS011;6774;48.208;10.766;2022-10-19T04:39:20;4.07;;;3.77;;
13406;SDS011;6774;48.208;10.766;2022-10-19T04:41:48;3.37;;;3.10;;
13406;SDS011;6774;48.208;10.766;2022-10-19T04:44:16;2.90;;;2.70;;
13406;SDS011;6774;48.208;10.766;2022-10-19T04:46:45;3.33;;;3.13;;
13406;SDS011;6774;48.208;10.766;2022-10-19T04:49:13;2.80;;;2.60;;
13406;SDS011;6774;48.208;10.766;2022-10-19T04:51:46;3.10;;;2.93;;
13406;SDS011;6774;48.208;10.766;2022-10-19T04:54:13;2.80;;;2.60;;
13406;SDS011;6774;48.208;10.766;2022-10-19T04:56:42;3.53;;;3.33;;
13406;SDS011;6774;48.208;10.766;2022-10-19T04:59:10;3.47;;;3.17;;
13406;SDS011;6774;48.208;10.766;2022-10-19T05:01:37;3.93;;;3.73;;
13406;SDS011;6774;48.208;10.766;2022-10-19T05:04:14;4.57;;;4.37;;
13406;SDS011;6774;48.208;10.766;2022-10-19T05:06:42;4.37;;;4.03;;
13406;SDS011;6774;48.208;10.766;2022-10-19T05:09:09;3.70;;;3.40;;
13406;SDS011;6774;48.208;10.766;2022-10-19T05:11:38;3.17;;;2.97;;
13406;SDS011;6774;48.208;10.766;2022-10-19T05:14:05;3.83;;;3.63;;
13406;SDS011;6774;48.208;10.766;2022-10-19T05:16:33;4.07;;;3.87;;
13406;SDS011;6774;48.208;10.766;2022-10-19T05:19:01;3.03;;;2.83;;
13406;SDS011;6774;48.208;10.766;2022-10-19T05:21:30;2.80;;;2.67;;
13406;SDS011;6774;48.208;10.766;2022-10-19T05:23:58;4.20;;;3.80;;
13406;SDS011;6774;48.208;10.766;2022-10-19T05:26:26;3.90;;;3.70;;
13406;SDS011;6774;48.208;10.766;2022-10-19T05:28:56;3.93;;;3.63;;
13406;SDS011;6774;48.208;10.766;2022-10-19T05:31:28;4.27;;;4.07;;
13406;SDS011;6774;48.208;10.766;2022-10-19T05:33:57;2.97;;;2.77;;
13406;SDS011;6774;48.208;10.766;2022-10-19T05:36:26;5.30;;;4.80;;
13406;SDS011;6774;48.208;10.766;2022-10-19T05:38:56;3.70;;;3.53;;
13406;SDS011;6774;48.208;10.766;2022-10-19T05:41:24;2.90;;;2.70;;
13406;SDS011;6774;48.208;10.766;2022-10-19T05:43:54;4.30;;;4.00;;
13406;SDS011;6774;48.208;10.766;2022-10-19T05:46:24;3.53;;;3.33;;
13406;SDS011;6774;48.208;10.766;2022-10-19T05:48:53;3.23;;;3.03;;
13406;SDS011;6774;48.208;10.766;2022-10-19T05:51:23;4.37;;;4.07;;
13406;SDS011;6774;48.208;10.766;2022-10-19T05:53:52;3.30;;;3.13;;
13406;SDS011;6774;48.208;10.766;2022-10-19T05:56:22;3.53;;;3.33;;
13406;SDS011;6774;48.208;10.766;2022-10-19T05:58:51;3.20;;;3.00;;
13406;SDS011;6774;48.208;10.766;2022-10-19T06:01:19;3.77;;;3.57;;
13406;SDS011;6774;48.208;10.766;2022-10-19T06:03:49;2.97;;;2.87;;
13406;SDS011;6774;48.208;10.766;2022-10-19T06:06:19;3.57;;;3.37;;
13406;SDS011;6774;48.208;10.766;2022-10-19T06:08:47;4.23;;;3.93;;
13406;SDS011;6774;48.208;10.766;2022-10-19T06:11:16;3.90;;;3.70;;
13406;SDS011;6774;48.208;10.766;2022-10-19T06:13:47;4.10;;;3.87;;
13406;SDS011;6774;48.208;10.766;2022-10-19T06:16:18;4.67;;;4.33;;
13406;SDS011;6774;48.208;10.766;2022-10-19T06:18:46;4.30;;;4.10;;
13406;SDS011;6774;48.208;10.766;2022-10-19T06:21:15;5.13;;;4.80;;
13406;SDS011;6774;48.208;10.766;2022-10-19T06:23:48;5.03;;;4.73;;
13406;SDS011;6774;48.208;10.766;2022-10-19T06:26:16;4.47;;;4.17;;
13406;SDS011;6774;48.208;10.766;2022-10-19T06:28:45;4.33;;;3.93;;
13406;SDS011;6774;48.208;10.766;2022-10-19T06:31:15;3.97;;;3.77;;
13406;SDS011;6774;48.208;10.766;2022-10-19T06:33:43;4.27;;;3.97;;
13406;SDS011;6774;48.208;10.766;2022-10-19T06:36:15;5.20;;;4.87;;
13406;SDS011;6774;48.208;10.766;2022-10-19T06:38:45;5.23;;;4.93;;
13406;SDS011;6774;48.208;10.766;2022-10-19T06:41:13;4.47;;;4.17;;
13406;SDS011;6774;48.208;10.766;2022-10-19T06:43:41;6.13;;;5.57;;
13406;SDS011;6774;48.208;10.766;2022-10-19T06:46:12;5.20;;;4.90;;
13406;SDS011;6774;48.208;10.766;2022-10-19T06:48:42;5.23;;;4.93;;
13406;SDS011;6774;48.208;10.766;2022-10-19T06:51:10;4.57;;;4.27;;
13406;SDS011;6774;48.208;10.766;2022-10-19T06:53:39;4.67;;;4.47;;
13406;SDS011;6774;48.208;10.766;2022-10-19T06:56:08;5.07;;;4.83;;
13406;SDS011;6774;48.208;10.766;2022-10-19T06:58:36;4.80;;;4.50;;
13406;SDS011;6774;48.208;10.766;2022-10-19T07:01:05;5.27;;;4.97;;
13406;SDS011;6774;48.208;10.766;2022-10-19T07:03:36;6.83;;;6.13;;
13406;SDS011;6774;48.208;10.766;2022-10-19T07:06:05;5.37;;;5.07;;
13406;SDS011;6774;48.208;10.766;2022-10-19T07:08:34;6.20;;;5.80;;
13406;SDS011;6774;48.208;10.766;2022-10-19T07:11:03;6.43;;;6.03;;
13406;SDS011;6774;48.208;10.766;2022-10-19T07:13:32;7.20;;;6.50;;
13406;SDS011;6774;48.208;10.766;2022-10-19T07:16:02;6.80;;;6.30;;
13406;SDS011;6774;48.208;10.766;2022-10-19T07:18:32;9.77;;;9.00;;
13406;SDS011;6774;48.208;10.766;2022-10-19T07:21:04;9.30;;;8.67;;
13406;SDS011;6774;48.208;10.766;2022-10-19T07:23:33;8.13;;;7.53;;
13406;SDS011;6774;48.208;10.766;2022-10-19T07:26:03;8.13;;;7.53;;
13406;SDS011;6774;48.208;10.766;2022-10-19T07:28:32;6.67;;;6.17;;
13406;SDS011;6774;48.208;10.766;2022-10-19T07:31:03;6.97;;;6.33;;
13406;SDS011;6774;48.208;10.766;2022-10-19T07:33:32;6.73;;;6.23;;
13406;SDS011;6774;48.208;10.766;2022-10-19T07:36:00;8.60;;;8.00;;
13406;SDS011;6774;48.208;10.766;2022-10-19T07:38:31;6.60;;;6.10;;
13406;SDS011;6774;48.208;10.766;2022-10-19T07:41:00;6.10;;;5.70;;
13406;SDS011;6774;48.208;10.766;2022-10-19T07:43:30;6.30;;;5.90;;
13406;SDS011;6774;48.208;10.766;2022-10-19T07:45:59;9.10;;;8.40;;
13406;SDS011;6774;48.208;10.766;2022-10-19T07:48:27;8.73;;;8.13;;
13406;SDS011;6774;48.208;10.766;2022-10-19T07:50:55;7.30;;;6.80;;
13406;SDS011;6774;48.208;10.766;2022-10-19T07:53:23;8.20;;;7.47;;
13406;SDS011;6774;48.208;10.766;2022-10-19T07:55:52;6.97;;;6.30;;
13406;SDS011;6774;48.208;10.766;2022-10-19T07:58:20;7.57;;;7.07;;
13406;SDS011;6774;48.208;10.766;2022-10-19T08:00:49;7.50;;;6.73;;
13406;SDS011;6774;48.208;10.766;2022-10-19T08:03:17;9.70;;;9.00;;
13406;SDS011;6774;48.208;10.766;2022-10-19T08:06:07;10.90;;;10.00;;
13406;SDS011;6774;48.208;10.766;2022-10-19T08:08:36;6.63;;;6.23;;
13406;SDS011;6774;48.208;10.766;2022-10-19T08:11:06;9.33;;;8.53;;
13406;SDS011;6774;48.208;10.766;2022-10-19T08:13:36;6.30;;;5.80;;
13406;SDS011;6774;48.208;10.766;2022-10-19T08:16:04;10.10;;;9.30;;
13406;SDS011;6774;48.208;10.766;2022-10-19T08:18:33;6.80;;;6.40;;
13406;SDS011;6774;48.208;10.766;2022-10-19T08:21:01;7.50;;;7.00;;
13406;SDS011;6774;48.208;10.766;2022-10-19T08:23:29;8.60;;;8.10;;
13406;SDS011;6774;48.208;10.766;2022-10-19T08:25:57;7.20;;;6.73;;
13406;SDS011;6774;48.208;10.766;2022-10-19T08:28:26;6.60;;;6.10;;
13406;SDS011;6774;48.208;10.766;2022-10-19T08:30:54;9.33;;;8.73;;
13406;SDS011;6774;48.208;10.766;2022-10-19T08:33:24;8.73;;;8.13;;
13406;SDS011;6774;48.208;10.766;2022-10-19T08:35:52;8.00;;;7.50;;
13406;SDS011;6774;48.208;10.766;2022-10-19T08:38:20;8.43;;;7.83;;
13406;SDS011;6774;48.208;10.766;2022-10-19T08:40:48;8.17;;;7.67;;
13406;SDS011;6774;48.208;10.766;2022-10-19T08:43:17;8.37;;;7.80;;
13406;SDS011;6774;48.208;10.766;2022-10-19T08:45:52;9.43;;;8.53;;
13406;SDS011;6774;48.208;10.766;2022-10-19T08:48:28;8.90;;;8.10;;
13406;SDS011;6774;48.208;10.766;2022-10-19T08:50:58;9.97;;;9.17;;
13406;SDS011;6774;48.208;10.766;2022-10-19T08:53:30;8.83;;;8.23;;
13406;SDS011;6774;48.208;10.766;2022-10-19T08:56:08;8.47;;;7.97;;
13406;SDS011;6774;48.208;10.766;2022-10-19T08:59:07;8.80;;;8.20;;
13406;SDS011;6774;48.208;10.766;2022-10-19T09:01:42;8.53;;;7.97;;
13406;SDS011;6774;48.208;10.766;2022-10-19T09:04:18;7.50;;;7.00;;
13406;SDS011;6774;48.208;10.766;2022-10-19T09:06:58;7.60;;;7.10;;
13406;SDS011;6774;48.208;10.766;2022-10-19T09:09:41;7.17;;;6.77;;
13406;SDS011;6774;48.208;10.766;2022-10-19T09:12:13;8.17;;;7.67;;
13406;SDS011;6774;48.208;10.766;2022-10-19T09:14:50;6.23;;;5.80;;
13406;SDS011;6774;48.208;10.766;2022-10-19T09:17:23;8.30;;;7.70;;
13406;SDS011;6774;48.208;10.766;2022-10-19T09:20:00;9.80;;;8.87;;
13406;SDS011;6774;48.208;10.766;2022-10-19T09:22:41;7.30;;;6.80;;
13406;SDS011;6774;48.208;10.766;2022-10-19T09:25:16;7.27;;;6.87;;
13406;SDS011;6774;48.208;10.766;2022-10-19T09:27:46;8.33;;;7.83;;
13406;SDS011;6774;48.208;10.766;2022-10-19T09:30:16;7.93;;;7.37;;
13406;SDS011;6774;48.208;10.766;2022-10-19T09:32:48;8.67;;;8.07;;
13406;SDS011;6774;48.208;10.766;2022-10-19T09:35:20;8.40;;;7.60;;
13406;SDS011;6774;48.208;10.766;2022-10-19T09:37:54;8.20;;;7.60;;
13406;SDS011;6774;48.208;10.766;2022-10-19T09:40:23;8.27;;;7.67;;
13406;SDS011;6774;48.208;10.766;2022-10-19T09:42:52;6.87;;;6.43;;
13406;SDS011;6774;48.208;10.766;2022-10-19T09:45:28;8.03;;;7.43;;
13406;SDS011;6774;48.208;10.766;2022-10-19T09:48:05;8.03;;;7.33;;
13406;SDS011;6774;48.208;10.766;2022-10-19T09:50:42;7.73;;;7.13;;
13406;SDS011;6774;48.208;10.766;2022-10-19T09:53:14;8.47;;;7.77;;
13406;SDS011;6774;48.208;10.766;2022-10-19T09:55:46;8.13;;;7.50;;
13406;SDS011;6774;48.208;10.766;2022-10-19T09:58:18;17.63;;;9.17;;
13406;SDS011;6774;48.208;10.766;2022-10-19T10:00:47;7.30;;;6.83;;
13406;SDS011;6774;48.208;10.766;2022-10-19T10:03:29;7.97;;;7.37;;
13406;SDS011;6774;48.208;10.766;2022-10-19T10:06:01;7.70;;;7.23;;
13406;SDS011;6774;48.208;10.766;2022-10-19T10:08:32;5.67;;;5.27;;
13406;SDS011;6774;48.208;10.766;2022-10-19T10:11:06;6.90;;;6.23;;
13406;SDS011;6774;48.208;10.766;2022-10-19T10:13:38;7.57;;;6.97;;
13406;SDS011;6774;48.208;10.766;2022-10-19T10:16:08;6.23;;;5.83;;
13406;SDS011;6774;48.208;10.766;2022-10-19T10:18:43;14.10;;;5.73;;
13406;SDS011;6774;48.208;10.766;2022-10-19T10:21:21;7.43;;;7.03;;
13406;SDS011;6774;48.208;10.766;2022-10-19T10:23:59;7.23;;;6.77;;
13406;SDS011;6774;48.208;10.766;2022-10-19T10:26:27;5.33;;;5.03;;
13406;SDS011;6774;48.208;10.766;2022-10-19T10:28:56;3.97;;;3.77;;
13406;SDS011;6774;48.208;10.766;2022-10-19T10:31:27;4.40;;;4.20;;
13406;SDS011;6774;48.208;10.766;2022-10-19T10:33:58;6.67;;;6.07;;
13406;SDS011;6774;48.208;10.766;2022-10-19T10:36:48;4.83;;;4.50;;
13406;SDS011;6774;48.208;10.766;2022-10-19T10:39:17;3.67;;;3.47;;
13406;SDS011;6774;48.208;10.766;2022-10-19T10:41:46;4.93;;;4.37;;
13406;SDS011;6774;48.208;10.766;2022-10-19T10:44:17;5.47;;;5.00;;
13406;SDS011;6774;48.208;10.766;2022-10-19T10:46:49;6.37;;;4.63;;
13406;SDS011;6774;48.208;10.766;2022-10-19T10:49:22;4.33;;;4.13;;
13406;SDS011;6774;48.208;10.766;2022-10-19T10:51:53;4.23;;;3.93;;
13406;SDS011;6774;48.208;10.766;2022-10-19T10:54:23;3.90;;;3.53;;
13406;SDS011;6774;48.208;10.766;2022-10-19T10:56:58;4.50;;;4.20;;
13406;SDS011;6774;48.208;10.766;2022-10-19T10:59:41;4.53;;;4.33;;
13406;SDS011;6774;48.208;10.766;2022-10-19T11:02:24;4.23;;;3.93;;
13406;SDS011;6774;48.208;10.766;2022-10-19T11:05:00;3.67;;;3.47;;
13406;SDS011;6774;48.208;10.766;2022-10-19T11:07:33;4.57;;;3.67;;
13406;SDS011;6774;48.208;10.766;2022-10-19T11:10:03;5.23;;;4.93;;
13406;SDS011;6774;48.208;10.766;2022-10-19T11:12:40;30.43;;;5.67;;
13406;SDS011;6774;48.208;10.766;2022-10-19T11:15:13;4.40;;;4.10;;
13406;SDS011;6774;48.208;10.766;2022-10-19T11:17:51;4.73;;;4.27;;
13406;SDS011;6774;48.208;10.766;2022-10-19T11:20:25;5.80;;;4.90;;
13406;SDS011;6774;48.208;10.766;2022-10-19T11:22:59;5.20;;;4.90;;
13406;SDS011;6774;48.208;10.766;2022-10-19T11:25:42;4.47;;;4.17;;
13406;SDS011;6774;48.208;10.766;2022-10-19T11:28:21;6.27;;;5.67;;
13406;SDS011;6774;48.208;10.766;2022-10-19T11:31:03;5.97;;;5.67;;
13406;SDS011;6774;48.208;10.766;2022-10-19T11:33:43;4.27;;;4.07;;
13406;SDS011;6774;48.208;10.766;2022-10-19T11:36:29;4.00;;;3.70;;
13406;SDS011;6774;48.208;10.766;2022-10-19T11:39:20;5.77;;;5.30;;
13406;SDS011;6774;48.208;10.766;2022-10-19T11:41:59;4.03;;;3.83;;
13406;SDS011;6774;48.208;10.766;2022-10-19T11:44:35;5.17;;;4.77;;
13406;SDS011;6774;48.208;10.766;2022-10-19T11:47:18;4.57;;;4.27;;
13406;SDS011;6774;48.208;10.766;2022-10-19T11:49:58;5.20;;;4.87;;
13406;SDS011;6774;48.208;10.766;2022-10-19T11:52:38;4.47;;;4.07;;
13406;SDS011;6774;48.208;10.766;2022-10-19T11:55:16;4.10;;;3.90;;
13406;SDS011;6774;48.208;10.766;2022-10-19T11:57:54;4.00;;;3.80;;
13406;SDS011;6774;48.208;10.766;2022-10-19T12:00:33;3.30;;;3.10;;
13406;SDS011;6774;48.208;10.766;2022-10-19T12:03:21;4.70;;;4.40;;
13406;SDS011;6774;48.208;10.766;2022-10-19T12:06:04;5.17;;;4.87;;
13406;SDS011;6774;48.208;10.766;2022-10-19T12:08:47;5.37;;;5.03;;
13406;SDS011;6774;48.208;10.766;2022-10-19T12:11:26;4.53;;;4.23;;
13406;SDS011;6774;48.208;10.766;2022-10-19T12:14:04;4.03;;;3.83;;
13406;SDS011;6774;48.208;10.766;2022-10-19T12:16:37;5.40;;;5.00;;
13406;SDS011;6774;48.208;10.766;2022-10-19T12:19:11;4.87;;;4.67;;
13406;SDS011;6774;48.208;10.766;2022-10-19T12:21:44;4.10;;;3.83;;
13406;SDS011;6774;48.208;10.766;2022-10-19T12:24:16;3.27;;;3.07;;
13406;SDS011;6774;48.208;10.766;2022-10-19T12:26:46;4.90;;;4.07;;
13406;SDS011;6774;48.208;10.766;2022-10-19T12:29:16;3.73;;;3.53;;
13406;SDS011;6774;48.208;10.766;2022-10-19T12:31:49;4.73;;;4.43;;
13406;SDS011;6774;48.208;10.766;2022-10-19T12:34:21;3.60;;;3.40;;
13406;SDS011;6774;48.208;10.766;2022-10-19T12:36:59;4.30;;;3.70;;
13406;SDS011;6774;48.208;10.766;2022-10-19T12:39:37;4.00;;;3.80;;
13406;SDS011;6774;48.208;10.766;2022-10-19T12:42:12;2.87;;;2.77;;
13406;SDS011;6774;48.208;10.766;2022-10-19T12:45:01;3.53;;;3.33;;
13406;SDS011;6774;48.208;10.766;2022-10-19T12:47:39;3.47;;;3.27;;
13406;SDS011;6774;48.208;10.766;2022-10-19T12:50:57;3.33;;;3.13;;
13406;SDS011;6774;48.208;10.766;2022-10-19T12:53:33;3.10;;;2.83;;
13406;SDS011;6774;48.208;10.766;2022-10-19T12:56:06;3.40;;;3.20;;
13406;SDS011;6774;48.208;10.766;2022-10-19T12:58:38;4.60;;;4.20;;
13406;SDS011;6774;48.208;10.766;2022-10-19T13:01:14;4.30;;;4.03;;
13406;SDS011;6774;48.208;10.766;2022-10-19T13:03:46;3.70;;;3.20;;
13406;SDS011;6774;48.208;10.766;2022-10-19T13:06:17;2.57;;;2.33;;
13406;SDS011;6774;48.208;10.766;2022-10-19T13:08:57;3.53;;;3.33;;
13406;SDS011;6774;48.208;10.766;2022-10-19T13:11:29;4.23;;;3.80;;
13406;SDS011;6774;48.208;10.766;2022-10-19T13:13:59;3.37;;;3.17;;
13406;SDS011;6774;48.208;10.766;2022-10-19T13:19:24;3.80;;;3.50;;
13406;SDS011;6774;48.208;10.766;2022-10-19T13:21:55;3.03;;;2.83;;
13406;SDS011;6774;48.208;10.766;2022-10-19T13:25:17;2.97;;;2.67;;
13406;SDS011;6774;48.208;10.766;2022-10-19T13:27:50;4.13;;;3.93;;
13406;SDS011;6774;48.208;10.766;2022-10-19T13:33:43;2.93;;;2.73;;
13406;SDS011;6774;48.208;10.766;2022-10-19T13:36:14;3.33;;;3.07;;
13406;SDS011;6774;48.208;10.766;2022-10-19T13:38:44;4.07;;;3.80;;
13406;SDS011;6774;48.208;10.766;2022-10-19T13:41:15;3.93;;;3.70;;
13406;SDS011;6774;48.208;10.766;2022-10-19T13:46:50;3.93;;;3.53;;
13406;SDS011;6774;48.208;10.766;2022-10-19T13:49:37;3.63;;;3.43;;
13406;SDS011;6774;48.208;10.766;2022-10-19T13:52:23;3.03;;;2.93;;
13406;SDS011;6774;48.208;10.766;2022-10-19T13:55:17;4.20;;;3.80;;
13406;SDS011;6774;48.208;10.766;2022-10-19T13:58:04;2.97;;;2.77;;
13406;SDS011;6774;48.208;10.766;2022-10-19T14:00:52;3.43;;;3.23;;
13406;SDS011;6774;48.208;10.766;2022-10-19T14:03:33;3.83;;;3.63;;
13406;SDS011;6774;48.208;10.766;2022-10-19T14:06:19;3.07;;;2.93;;
13406;SDS011;6774;48.208;10.766;2022-10-19T14:12:06;3.77;;;3.47;;
13406;SDS011;6774;48.208;10.766;2022-10-19T14:14:40;3.77;;;3.57;;
13406;SDS011;6774;48.208;10.766;2022-10-19T14:17:13;3.23;;;2.93;;
13406;SDS011;6774;48.208;10.766;2022-10-19T14:19:45;3.17;;;3.00;;
13406;SDS011;6774;48.208;10.766;2022-10-19T14:22:25;3.47;;;3.17;;
13406;SDS011;6774;48.208;10.766;2022-10-19T14:25:03;3.67;;;3.23;;
13406;SDS011;6774;48.208;10.766;2022-10-19T14:27:33;3.50;;;3.30;;
13406;SDS011;6774;48.208;10.766;2022-10-19T14:30:02;5.40;;;4.30;;
13406;SDS011;6774;48.208;10.766;2022-10-19T14:32:32;3.57;;;3.37;;
13406;SDS011;6774;48.208;10.766;2022-10-19T14:35:03;4.20;;;4.00;;
13406;SDS011;6774;48.208;10.766;2022-10-19T14:37:42;3.97;;;3.67;;
13406;SDS011;6774;48.208;10.766;2022-10-19T14:40:21;2.63;;;2.53;;
13406;SDS011;6774;48.208;10.766;2022-10-19T14:42:54;3.57;;;3.33;;
13406;SDS011;6774;48.208;10.766;2022-10-19T14:45:24;4.43;;;4.13;;
13406;SDS011;6774;48.208;10.766;2022-10-19T14:47:56;3.57;;;3.37;;
13406;SDS011;6774;48.208;10.766;2022-10-19T14:50:31;3.00;;;2.80;;
13406;SDS011;6774;48.208;10.766;2022-10-19T14:53:14;4.23;;;4.03;;
13406;SDS011;6774;48.208;10.766;2022-10-19T14:55:48;4.17;;;3.90;;
13406;SDS011;6774;48.208;10.766;2022-10-19T14:58:21;5.13;;;4.20;;
13406;SDS011;6774;48.208;10.766;2022-10-19T15:00:52;3.97;;;3.70;;
13406;SDS011;6774;48.208;10.766;2022-10-19T15:03:23;4.67;;;4.27;;
13406;SDS011;6774;48.208;10.766;2022-10-19T15:05:55;4.13;;;3.93;;
13406;SDS011;6774;48.208;10.766;2022-10-19T15:08:29;4.87;;;4.50;;
13406;SDS011;6774;48.208;10.766;2022-10-19T15:11:03;4.17;;;3.87;;
13406;SDS011;6774;48.208;10.766;2022-10-19T15:13:33;5.07;;;4.63;;
13406;SDS011;6774;48.208;10.766;2022-10-19T15:16:24;3.90;;;3.70;;
13406;SDS011;6774;48.208;10.766;2022-10-19T15:18:57;3.67;;;3.50;;
13406;SDS011;6774;48.208;10.766;2022-10-19T15:21:30;4.20;;;3.97;;
13406;SDS011;6774;48.208;10.766;2022-10-19T15:24:05;4.53;;;4.23;;
13406;SDS011;6774;48.208;10.766;2022-10-19T15:26:35;4.07;;;3.77;;
13406;SDS011;6774;48.208;10.766;2022-10-19T15:29:07;4.53;;;4.23;;
13406;SDS011;6774;48.208;10.766;2022-10-19T15:31:45;3.30;;;3.20;;